Time;durP1;ratioP1;P1;durP2;ratioP2;P2;SDS_P1;SDS_P2;PMS_P1;PMS_P2;Temp;Humidity;BMP_temperature;BMP_pressure;BME280_temperature;BME280_humidity;BME280_pressure;Samples;Min_cycle;Max_cycle;Signal;HPM_P1;HPM_P2
2021/12/07 00:01:22;;;;;;;5.88;4.32;;;5.60;46.00;;;;;;5004782;28;20170;-48
2021/12/07 00:03:51;;;;;;;7.10;3.55;;;5.60;45.90;;;;;;5020824;28;20177;-48
2021/12/07 00:06:19;;;;;;;8.45;3.90;;;5.60;45.70;;;;;;5037698;28;20173;-48
2021/12/07 00:08:51;;;;;;;5.97;2.63;;;5.60;45.80;;;;;;5020552;28;20280;-48
2021/12/07 00:11:19;;;;;;;9.38;2.67;;;5.60;45.70;;;;;;5020105;28;20181;-48
2021/12/07 00:13:47;;;;;;;7.38;2.50;;;5.60;45.70;;;;;;5037620;28;20163;-48
2021/12/07 00:16:15;;;;;;;6.70;2.33;;;5.50;45.80;;;;;;5037688;28;20190;-48
2021/12/07 00:18:43;;;;;;;2.25;1.42;;;5.60;45.80;;;;;;5037617;28;20166;-48
2021/12/07 00:21:10;;;;;;;3.50;2.92;;;5.60;45.80;;;;;;5019530;28;20640;-49
2021/12/07 00:23:38;;;;;;;6.18;2.45;;;5.60;45.50;;;;;;5020108;28;20178;-48
2021/12/07 00:26:06;;;;;;;5.38;3.83;;;5.60;45.60;;;;;;5020286;28;20201;-48
2021/12/07 00:28:33;;;;;;;8.10;3.03;;;5.50;45.50;;;;;;5037356;28;20213;-48
2021/12/07 00:31:10;;;;;;;4.72;1.73;;;5.60;45.20;;;;;;5037390;28;20173;-48
2021/12/07 00:33:48;;;;;;;4.28;1.90;;;5.60;45.30;;;;;;5037347;28;20178;-48
2021/12/07 00:36:16;;;;;;;9.52;4.00;;;5.60;44.90;;;;;;5037269;28;20554;-48
2021/12/07 00:38:44;;;;;;;4.22;2.83;;;5.50;45.10;;;;;;5019965;28;20170;-49
2021/12/07 00:41:11;;;;;;;12.20;3.60;;;5.60;45.20;;;;;;5036909;28;20226;-48
2021/12/07 00:43:40;;;;;;;3.88;3.53;;;5.50;45.40;;;;;;5019923;28;20166;-49
2021/12/07 00:46:08;;;;;;;4.47;3.58;;;5.60;45.10;;;;;;5003834;28;20231;-48
2021/12/07 00:48:36;;;;;;;20.00;5.20;;;5.60;44.80;;;;;;5020001;28;20587;-48
2021/12/07 00:51:04;;;;;;;3.75;2.22;;;5.50;45.10;;;;;;5019755;28;20166;-48
2021/12/07 00:53:31;;;;;;;5.85;1.40;;;5.50;45.30;;;;;;5019677;28;20253;-48
2021/12/07 00:56:03;;;;;;;5.53;2.63;;;5.60;44.70;;;;;;5019561;28;20248;-48
2021/12/07 00:58:31;;;;;;;4.32;2.08;;;5.50;44.10;;;;;;4987727;28;20181;-49
2021/12/07 01:01:04;;;;;;;5.00;1.95;;;5.50;44.50;;;;;;5036708;28;20249;-49
2021/12/07 01:03:32;;;;;;;4.20;2.60;;;5.50;44.40;;;;;;5020421;28;20162;-49
2021/12/07 01:25:09;;;;;;;3.45;2.20;;;5.40;44.20;;;;;;5036768;28;20273;-49
2021/12/07 01:27:37;;;;;;;2.88;1.42;;;5.50;44.00;;;;;;5019031;28;20162;-48
2021/12/07 01:30:18;;;;;;;6.40;3.63;;;5.50;43.90;;;;;;5002897;28;20194;-48
2021/12/07 01:38:29;;;;;;;9.45;2.40;;;5.50;43.90;;;;;;4992069;28;20204;-48
2021/12/07 01:41:26;;;;;;;5.32;2.38;;;5.50;44.00;;;;;;5018585;28;20257;-49
2021/12/07 01:44:17;;;;;;;9.65;5.18;;;5.50;43.70;;;;;;5005958;28;20178;-49
2021/12/07 01:46:59;;;;;;;8.85;3.30;;;5.40;43.80;;;;;;5021615;28;20614;-49
2021/12/07 01:50:07;;;;;;;5.60;2.58;;;5.40;43.90;;;;;;5035545;28;20508;-49
2021/12/07 01:52:40;;;;;;;5.63;3.55;;;5.50;43.90;;;;;;5035563;28;20687;-48
2021/12/07 01:59:32;;;;;;;6.32;3.10;;;5.50;43.50;;;;;;5021456;28;20231;-49
2021/12/07 02:00:54;;;;;;;13.25;3.85;;;5.50;43.80;;;;;;5007676;28;20162;-49
2021/12/07 02:03:33;;;;;;;7.30;2.92;;;5.50;43.70;;;;;;5021667;28;20155;-49
2021/12/07 02:06:01;;;;;;;6.75;3.05;;;5.50;43.30;;;;;;5018306;28;20182;-49
2021/12/07 02:08:28;;;;;;;1.65;1.05;;;5.50;43.40;;;;;;5035606;28;20228;-49
2021/12/07 02:10:59;;;;;;;4.28;3.50;;;5.40;43.30;;;;;;5035467;28;20531;-49
2021/12/07 02:15:58;;;;;;;3.70;2.53;;;5.40;43.00;;;;;;5035503;28;20500;-49
2021/12/07 02:18:26;;;;;;;8.50;2.80;;;5.40;43.10;;;;;;5035336;28;20178;-48
2021/12/07 02:20:53;;;;;;;3.47;2.72;;;5.30;43.20;;;;;;5018448;28;20585;-50
2021/12/07 02:23:21;;;;;;;5.95;3.90;;;5.30;43.30;;;;;;5002543;28;20169;-48
2021/12/07 02:25:49;;;;;;;3.10;2.15;;;5.30;43.00;;;;;;5018434;28;20154;-50
2021/12/07 02:28:17;;;;;;;7.88;4.30;;;5.30;43.10;;;;;;5035172;28;20177;-48
2021/12/07 02:30:45;;;;;;;10.00;1.95;;;5.30;43.40;;;;;;5035295;28;20218;-48
2021/12/07 02:33:13;;;;;;;5.07;2.20;;;5.40;43.20;;;;;;5018007;28;20166;-49
2021/12/07 02:35:41;;;;;;;5.18;2.28;;;5.30;43.10;;;;;;5034933;28;20309;-48
2021/12/07 02:38:08;;;;;;;6.38;2.63;;;5.30;43.20;;;;;;5034988;28;20599;-48
2021/12/07 02:40:37;;;;;;;7.40;3.90;;;5.40;43.40;;;;;;5017881;28;20177;-48
2021/12/07 02:43:04;;;;;;;4.15;2.20;;;5.40;43.20;;;;;;5034742;28;20666;-49
2021/12/07 02:45:32;;;;;;;8.30;2.92;;;5.40;43.00;;;;;;5017509;28;20166;-48
2021/12/07 02:47:59;;;;;;;5.22;4.28;;;5.50;43.40;;;;;;5034832;28;20544;-48
2021/12/07 02:50:27;;;;;;;3.60;1.58;;;5.50;43.10;;;;;;5017634;28;20569;-48
2021/12/07 02:52:54;;;;;;;12.10;5.25;;;5.40;42.50;;;;;;5034792;28;20162;-48
2021/12/07 02:55:22;;;;;;;6.55;3.30;;;5.40;42.70;;;;;;5017889;28;20177;-48
2021/12/07 02:57:49;;;;;;;6.47;2.67;;;5.40;43.10;;;;;;5034873;28;20172;-48
2021/12/07 03:00:22;;;;;;;2.50;1.60;;;5.40;42.90;;;;;;5034927;28;20232;-48
2021/12/07 03:02:57;;;;;;;18.63;2.97;;;5.40;43.00;;;;;;5017972;28;20174;-49
2021/12/07 03:26:50;;;;;;;6.72;4.82;;;5.30;43.60;;;;;;5020150;28;20182;-49
2021/12/07 03:29:18;;;;;;;8.05;5.38;;;5.30;43.60;;;;;;5034572;28;20243;-49
2021/12/07 03:31:47;;;;;;;7.85;5.90;;;5.40;43.40;;;;;;5017285;28;20257;-49
2021/12/07 03:34:14;;;;;;;6.32;3.25;;;5.40;43.40;;;;;;5034697;28;20173;-49
2021/12/07 03:36:42;;;;;;;6.68;4.10;;;5.40;43.30;;;;;;5001152;28;20167;-49
2021/12/07 03:39:09;;;;;;;11.43;2.95;;;5.30;43.40;;;;;;5017404;28;20170;-49
2021/12/07 03:41:37;;;;;;;6.05;2.88;;;5.40;43.40;;;;;;5010451;28;20225;-48
2021/12/07 03:44:05;;;;;;;6.13;2.08;;;5.30;43.40;;;;;;5053425;28;20256;-48
2021/12/07 03:46:33;;;;;;;5.88;2.92;;;5.30;43.50;;;;;;5053536;28;20166;-48
2021/12/07 03:49:00;;;;;;;3.90;2.88;;;5.20;43.70;;;;;;5054105;28;20192;-48
2021/12/07 03:51:28;;;;;;;5.53;2.65;;;5.20;43.50;;;;;;5053427;28;20227;-48
2021/12/07 03:53:56;;;;;;;2.83;1.73;;;5.30;43.60;;;;;;5053311;28;20189;-49
2021/12/07 03:56:23;;;;;;;6.35;3.72;;;5.30;43.50;;;;;;5056981;28;20213;-48
2021/12/07 03:58:51;;;;;;;10.27;3.58;;;5.30;43.60;;;;;;5057886;28;20220;-49
2021/12/07 04:01:23;;;;;;;6.32;2.05;;;5.30;43.60;;;;;;5057407;28;20467;-48
2021/12/07 04:03:52;;;;;;;5.63;3.08;;;5.30;43.60;;;;;;5056884;28;20188;-48
2021/12/07 04:06:22;;;;;;;4.72;2.47;;;5.30;43.20;;;;;;5040969;28;20192;-50
2021/12/07 04:08:49;;;;;;;7.32;4.10;;;5.40;43.30;;;;;;5056595;28;20193;-48
2021/12/07 04:11:17;;;;;;;7.72;4.25;;;5.40;43.20;;;;;;5057589;28;20162;-47
2021/12/07 04:13:45;;;;;;;8.15;2.90;;;5.30;42.90;;;;;;5057539;28;20530;-48
2021/12/07 04:16:14;;;;;;;7.38;2.42;;;5.30;42.60;;;;;;5057517;28;20197;-48
2021/12/07 04:18:42;;;;;;;6.32;3.08;;;5.30;42.60;;;;;;5057588;28;20231;-48
2021/12/07 04:21:10;;;;;;;6.55;3.13;;;5.30;42.70;;;;;;5057439;28;20234;-47
2021/12/07 04:23:38;;;;;;;9.98;3.67;;;5.20;42.20;;;;;;5057534;28;20200;-48
2021/12/07 04:26:08;;;;;;;7.43;3.40;;;5.20;42.50;;;;;;5056762;28;20161;-48
2021/12/07 04:28:36;;;;;;;3.22;2.42;;;5.20;42.10;;;;;;5057246;28;20239;-48
2021/12/07 04:31:05;;;;;;;10.35;5.35;;;5.10;42.40;;;;;;5039987;28;20161;-48
2021/12/07 04:33:33;;;;;;;5.45;2.63;;;5.10;42.40;;;;;;5056342;28;20214;-49
2021/12/07 04:36:02;;;;;;;5.18;3.22;;;5.10;42.40;;;;;;5057145;28;20165;-48
2021/12/07 04:38:29;;;;;;;4.55;2.28;;;5.10;42.20;;;;;;5057333;28;20180;-49
2021/12/07 04:40:57;;;;;;;2.08;1.88;;;5.00;42.30;;;;;;5054940;28;20160;-47
2021/12/07 04:43:25;;;;;;;7.57;3.35;;;5.00;42.20;;;;;;5019893;28;20150;-48
2021/12/07 04:49:07;;;;;;;5.18;3.67;;;4.90;42.40;;;;;;5021300;28;20188;-48
2021/12/07 04:59:38;;;;;;;6.95;2.70;;;4.80;42.20;;;;;;5022389;28;20323;-47
2021/12/07 05:02:07;;;;;;;4.97;2.65;;;4.80;42.30;;;;;;5003473;28;20166;-48
2021/12/07 05:04:36;;;;;;;3.85;2.33;;;4.80;42.30;;;;;;5003509;28;20228;-48
2021/12/07 05:07:18;;;;;;;7.07;3.15;;;4.70;42.30;;;;;;5036036;28;20182;-48
2021/12/07 05:15:02;;;;;;;4.80;3.67;;;4.70;42.60;;;;;;5020521;28;20146;-48
2021/12/07 05:18:01;;;;;;;14.35;4.90;;;4.70;42.50;;;;;;5018913;28;20174;-49
2021/12/07 05:34:35;;;;;;;5.40;3.00;;;4.60;42.40;;;;;;5036473;28;20558;-48
2021/12/07 05:39:51;;;;;;;8.25;4.32;;;4.60;42.50;;;;;;5021766;28;20224;-48
2021/12/07 05:42:20;;;;;;;3.92;1.88;;;4.50;42.50;;;;;;5035915;28;20214;-48
2021/12/07 05:44:48;;;;;;;6.05;4.28;;;4.50;42.70;;;;;;5002564;28;20239;-48
2021/12/07 05:47:15;;;;;;;2.08;1.88;;;4.50;42.70;;;;;;5035828;28;20172;-48
2021/12/07 05:49:43;;;;;;;6.45;2.75;;;4.50;42.70;;;;;;5018466;28;20182;-48
2021/12/07 05:52:11;;;;;;;3.38;2.70;;;4.50;42.70;;;;;;5035995;28;20538;-48
2021/12/07 05:54:38;;;;;;;3.45;2.33;;;4.50;42.70;;;;;;5035701;28;20166;-48
2021/12/07 05:57:06;;;;;;;3.00;2.35;;;4.50;42.60;;;;;;5018451;28;20177;-49
2021/12/07 05:59:34;;;;;;;6.05;3.08;;;4.60;42.30;;;;;;5035741;28;20174;-48
2021/12/07 06:02:02;;;;;;;6.20;2.28;;;4.60;42.50;;;;;;5035678;28;20652;-48
2021/12/07 06:04:30;;;;;;;3.60;2.50;;;4.60;42.50;;;;;;5001895;28;20192;-48
2021/12/07 06:06:58;;;;;;;8.32;2.78;;;4.60;42.50;;;;;;5001821;28;20178;-48
2021/12/07 06:09:27;;;;;;;4.93;3.05;;;4.60;42.30;;;;;;5018060;28;20675;-48
2021/12/07 06:11:57;;;;;;;3.72;2.05;;;4.60;42.40;;;;;;5035408;28;20595;-48
2021/12/07 06:14:31;;;;;;;5.13;2.33;;;4.50;42.40;;;;;;5035323;28;20260;-49
2021/12/07 06:16:59;;;;;;;2.78;1.58;;;4.50;42.30;;;;;;5017867;28;20587;-48
2021/12/07 06:19:27;;;;;;;9.32;3.17;;;4.50;42.40;;;;;;5034299;28;20257;-48
2021/12/07 06:21:56;;;;;;;6.90;3.33;;;4.50;42.30;;;;;;5017832;28;20614;-48
2021/12/07 06:24:23;;;;;;;3.78;2.30;;;4.50;42.40;;;;;;5002002;28;20178;-50
2021/12/07 06:26:51;;;;;;;4.93;2.13;;;4.50;42.40;;;;;;5035216;28;20562;-48
2021/12/07 06:29:19;;;;;;;7.93;4.60;;;4.50;42.40;;;;;;5034977;28;20197;-48
2021/12/07 06:31:46;;;;;;;9.45;3.83;;;4.50;42.50;;;;;;5018011;28;20228;-48
2021/12/07 06:34:14;;;;;;;10.05;2.20;;;4.40;42.40;;;;;;5018290;28;20173;-48
2021/12/07 06:36:41;;;;;;;5.82;2.45;;;4.30;42.70;;;;;;5017855;28;20507;-49
2021/12/07 06:39:10;;;;;;;8.82;2.00;;;4.40;42.60;;;;;;5034936;28;20170;-48
2021/12/07 06:41:38;;;;;;;1.85;1.65;;;4.30;42.80;;;;;;5027020;28;20215;-48
2021/12/07 06:44:05;;;;;;;2.17;1.95;;;4.30;42.90;;;;;;5053617;28;20625;-49
2021/12/07 06:46:33;;;;;;;2.10;1.65;;;4.30;43.60;;;;;;5053998;28;20169;-49
2021/12/07 06:49:00;;;;;;;4.40;3.92;;;4.20;43.10;;;;;;5054800;28;20507;-48
2021/12/07 06:51:28;;;;;;;3.40;2.20;;;4.30;43.10;;;;;;5053959;28;20157;-48
2021/12/07 06:53:56;;;;;;;4.63;3.05;;;4.30;42.90;;;;;;5053999;28;20165;-48
2021/12/07 06:56:24;;;;;;;4.47;2.97;;;4.30;42.80;;;;;;5054677;28;20176;-49
2021/12/07 06:58:51;;;;;;;5.68;2.53;;;4.30;42.70;;;;;;5054836;28;20170;-48
2021/12/07 07:01:19;;;;;;;4.45;3.35;;;4.30;42.80;;;;;;5053675;28;20575;-48
2021/12/07 07:03:47;;;;;;;3.00;2.35;;;4.30;42.80;;;;;;5053709;28;20173;-48
2021/12/07 07:06:14;;;;;;;2.00;1.80;;;4.30;42.80;;;;;;5054642;28;20158;-50
2021/12/07 07:08:42;;;;;;;8.73;2.53;;;4.30;42.80;;;;;;5054551;28;20227;-48
2021/12/07 07:11:09;;;;;;;3.08;2.47;;;4.40;42.80;;;;;;5054516;28;20160;-48
2021/12/07 07:13:37;;;;;;;4.63;4.07;;;4.40;42.80;;;;;;5053451;28;20660;-48
2021/12/07 07:16:05;;;;;;;10.68;4.30;;;4.40;42.60;;;;;;5053824;28;20169;-48
2021/12/07 07:18:34;;;;;;;6.47;2.13;;;4.40;42.60;;;;;;5054499;28;20175;-48
2021/12/07 07:21:02;;;;;;;3.00;2.17;;;4.50;42.70;;;;;;5037608;28;20156;-48
2021/12/07 07:23:30;;;;;;;1.58;1.48;;;4.50;42.70;;;;;;5053673;28;20161;-49
2021/12/07 07:25:58;;;;;;;4.50;2.70;;;4.50;42.60;;;;;;5054330;28;20153;-48
2021/12/07 07:28:30;;;;;;;6.00;2.10;;;4.60;42.30;;;;;;5053366;28;20561;-48
2021/12/07 07:30:58;;;;;;;4.80;2.38;;;4.60;42.40;;;;;;5055836;28;20165;-48
2021/12/07 07:33:26;;;;;;;9.90;2.95;;;4.60;42.30;;;;;;5058353;28;20165;-49
2021/12/07 07:35:54;;;;;;;7.63;4.32;;;4.60;42.30;;;;;;5058251;28;20545;-48
2021/12/07 07:38:22;;;;;;;6.13;2.20;;;4.70;42.40;;;;;;5057208;28;20173;-49
2021/12/07 07:40:49;;;;;;;5.15;1.80;;;4.80;42.20;;;;;;5041332;28;20172;-49
2021/12/07 07:43:18;;;;;;;10.13;2.33;;;4.80;42.20;;;;;;5040724;28;20215;-48
2021/12/07 07:45:47;;;;;;;5.72;1.95;;;4.90;42.30;;;;;;5057370;28;20162;-50
2021/12/07 07:48:16;;;;;;;9.45;3.13;;;4.90;42.20;;;;;;5041161;28;20180;-49
2021/12/07 07:50:44;;;;;;;4.72;3.92;;;5.00;42.00;;;;;;5058385;28;20278;-49
2021/12/07 07:53:12;;;;;;;5.13;3.15;;;5.20;42.10;;;;;;5057469;28;20165;-48
2021/12/07 07:55:42;;;;;;;8.52;3.53;;;5.30;42.00;;;;;;5057076;28;20169;-49
2021/12/07 07:58:11;;;;;;;6.78;2.17;;;5.50;42.00;;;;;;5057788;28;20208;-49
2021/12/07 08:00:41;;;;;;;5.43;2.17;;;5.60;42.00;;;;;;5056998;28;20231;-48
2021/12/07 08:03:09;;;;;;;9.27;2.72;;;5.60;41.80;;;;;;5057051;28;20180;-48
2021/12/07 08:05:37;;;;;;;7.15;3.42;;;5.70;41.50;;;;;;5057902;28;20539;-49
2021/12/07 08:08:04;;;;;;;8.82;4.30;;;5.70;41.50;;;;;;5057827;28;20169;-48
2021/12/07 08:10:33;;;;;;;8.00;4.03;;;5.70;41.60;;;;;;5057539;28;20185;-49
2021/12/07 08:13:05;;;;;;;4.60;2.90;;;5.80;41.60;;;;;;5057970;28;20219;-49
2021/12/07 08:15:38;;;;;;;4.45;2.58;;;5.90;41.60;;;;;;5056834;28;20146;-48
2021/12/07 08:18:06;;;;;;;7.22;3.42;;;6.00;41.30;;;;;;5056606;28;20165;-48
2021/12/07 08:20:34;;;;;;;14.90;3.28;;;6.10;41.10;;;;;;5056793;28;20181;-48
2021/12/07 08:23:05;;;;;;;5.45;1.65;;;6.20;40.80;;;;;;5040370;28;20626;-48
2021/12/07 08:25:39;;;;;;;5.13;3.03;;;6.40;40.40;;;;;;5056468;28;20484;-49
2021/12/07 08:28:08;;;;;;;15.10;4.80;;;6.50;40.40;;;;;;5056561;28;20157;-48
2021/12/07 08:30:37;;;;;;;10.55;6.10;;;6.70;40.20;;;;;;5056548;28;20188;-48
2021/12/07 08:33:04;;;;;;;5.03;2.40;;;7.10;40.00;;;;;;5056255;28;20169;-47
2021/12/07 08:35:32;;;;;;;3.38;2.25;;;7.20;39.60;;;;;;5056496;28;20154;-49
2021/12/07 08:38:00;;;;;;;12.10;6.10;;;7.50;38.90;;;;;;5057140;28;20157;-49
2021/12/07 08:40:31;;;;;;;7.43;4.40;;;7.50;38.70;;;;;;5056209;28;20622;-48
2021/12/07 08:43:00;;;;;;;7.20;3.35;;;7.60;38.60;;;;;;5038452;28;20217;-49
2021/12/07 08:45:27;;;;;;;4.63;3.85;;;7.80;38.60;;;;;;5020188;28;20237;-48
2021/12/07 08:48:03;;;;;;;5.32;4.82;;;7.90;37.30;;;;;;5020749;28;20641;-48
2021/12/07 08:50:31;;;;;;;3.05;2.10;;;8.00;37.60;;;;;;5019565;28;20212;-48
2021/12/07 08:53:03;;;;;;;10.95;3.78;;;7.90;36.60;;;;;;5020201;28;20162;-48
2021/12/07 09:01:05;;;;;;;5.65;3.90;;;9.00;36.20;;;;;;5022500;28;20649;-48
2021/12/07 09:03:33;;;;;;;7.10;3.88;;;9.30;36.50;;;;;;5036884;28;20238;-49
2021/12/07 09:06:01;;;;;;;9.98;3.75;;;9.40;36.10;;;;;;5019868;28;20174;-48
2021/12/07 09:08:29;;;;;;;3.65;3.35;;;9.40;35.80;;;;;;5036784;28;20172;-48
2021/12/07 09:10:56;;;;;;;11.23;7.40;;;9.40;36.30;;;;;;5019229;28;20583;-48
2021/12/07 09:13:26;;;;;;;5.47;3.75;;;9.40;35.60;;;;;;5036700;28;20526;-48
2021/12/07 09:15:56;;;;;;;8.15;5.55;;;9.40;35.60;;;;;;5019607;28;20255;-48
2021/12/07 09:18:24;;;;;;;8.38;3.38;;;9.20;35.00;;;;;;5019265;28;20166;-48
2021/12/07 09:20:52;;;;;;;6.35;4.30;;;8.90;35.40;;;;;;5036366;28;20249;-48
2021/12/07 09:23:19;;;;;;;5.53;4.45;;;8.50;35.20;;;;;;5019228;28;20552;-48
2021/12/07 09:25:47;;;;;;;13.40;5.60;;;8.10;35.80;;;;;;5036212;28;20225;-48
2021/12/07 09:28:16;;;;;;;10.07;5.63;;;7.80;36.70;;;;;;5036327;28;20201;-48
2021/12/07 09:30:50;;;;;;;7.03;3.63;;;7.60;37.10;;;;;;5036083;28;20194;-48
2021/12/07 09:33:26;;;;;;;6.38;2.60;;;7.30;37.40;;;;;;5018922;28;20169;-49
2021/12/07 09:35:54;;;;;;;5.22;4.32;;;7.20;37.90;;;;;;5036078;28;20150;-49
2021/12/07 09:38:23;;;;;;;6.22;3.45;;;7.10;38.30;;;;;;5036248;28;20166;-48
2021/12/07 09:40:52;;;;;;;7.75;3.83;;;7.00;38.70;;;;;;5019134;28;20193;-48
2021/12/07 09:43:21;;;;;;;5.32;4.63;;;7.00;38.80;;;;;;5035806;28;20194;-49
2021/12/07 09:45:52;;;;;;;10.20;4.43;;;7.00;38.80;;;;;;5018671;28;20174;-48
2021/12/07 09:48:20;;;;;;;6.70;2.53;;;7.00;39.10;;;;;;5035731;28;20656;-48
2021/12/07 09:50:51;;;;;;;9.68;3.67;;;6.90;39.20;;;;;;5034838;28;20574;-48
2021/12/07 09:53:20;;;;;;;6.47;4.20;;;6.90;39.30;;;;;;5035460;28;20215;-48
2021/12/07 09:55:49;;;;;;;7.93;3.85;;;6.90;39.20;;;;;;5035641;28;20224;-48
2021/12/07 09:58:17;;;;;;;21.33;6.47;;;6.80;39.00;;;;;;5018168;28;20174;-48
2021/12/07 10:00:46;;;;;;;6.55;3.45;;;6.70;39.30;;;;;;5034899;28;20181;-48
2021/12/07 10:03:15;;;;;;;5.78;3.33;;;6.60;39.70;;;;;;5018343;28;20174;-49
2021/12/07 10:05:43;;;;;;;5.50;3.80;;;6.60;39.90;;;;;;5035328;28;20177;-48
2021/12/07 10:08:11;;;;;;;3.15;2.30;;;6.60;39.90;;;;;;5035580;28;20259;-49
2021/12/07 10:10:43;;;;;;;5.68;2.35;;;6.50;40.00;;;;;;5035591;28;20208;-48
2021/12/07 10:13:13;;;;;;;10.25;4.30;;;6.50;40.50;;;;;;5035684;28;20487;-49
2021/12/07 10:15:41;;;;;;;8.23;5.43;;;6.50;40.20;;;;;;5018121;28;20659;-49
2021/12/07 10:18:18;;;;;;;5.97;4.07;;;6.50;40.30;;;;;;5035944;28;20178;-48
2021/12/07 10:20:48;;;;;;;16.77;4.93;;;6.50;40.50;;;;;;5035603;28;20169;-48
2021/12/07 10:23:21;;;;;;;6.90;4.20;;;6.50;40.30;;;;;;5034389;28;20213;-48
2021/12/07 10:25:54;;;;;;;11.10;5.57;;;6.50;40.40;;;;;;5035469;28;20251;-48
2021/12/07 10:28:27;;;;;;;7.13;2.67;;;6.50;40.40;;;;;;5018110;28;20193;-48
2021/12/07 10:30:57;;;;;;;10.27;5.38;;;6.50;40.60;;;;;;5034139;28;20198;-48
2021/12/07 10:33:34;;;;;;;11.32;4.70;;;6.50;40.70;;;;;;5018014;28;20606;-48
2021/12/07 10:36:15;;;;;;;4.65;3.15;;;6.60;40.60;;;;;;5035253;28;20252;-49
2021/12/07 10:38:48;;;;;;;4.90;3.22;;;6.60;40.80;;;;;;5034369;28;20547;-48
2021/12/07 10:41:21;;;;;;;6.45;2.72;;;6.60;40.80;;;;;;5034271;28;20214;-48
2021/12/07 10:44:10;;;;;;;6.45;3.75;;;6.60;40.90;;;;;;5017667;28;20564;-48
2021/12/07 10:46:52;;;;;;;5.55;3.08;;;6.70;41.10;;;;;;5017738;28;20181;-48
2021/12/07 10:49:41;;;;;;;5.75;2.72;;;6.70;40.50;;;;;;5034797;28;20566;-48
2021/12/07 10:52:19;;;;;;;6.53;4.25;;;6.70;41.00;;;;;;5034932;28;20243;-48
2021/12/07 10:54:52;;;;;;;5.90;2.30;;;6.80;40.90;;;;;;5035071;28;20177;-48
2021/12/07 10:57:25;;;;;;;5.07;3.97;;;6.90;41.00;;;;;;5018636;28;20172;-48
2021/12/07 11:00:04;;;;;;;6.97;2.45;;;7.00;40.80;;;;;;5034982;28;20627;-48
2021/12/07 11:02:34;;;;;;;6.95;6.22;;;7.10;40.70;;;;;;5017486;28;20166;-49
2021/12/07 11:05:04;;;;;;;6.00;2.90;;;7.20;40.40;;;;;;5034166;28;20252;-48
2021/12/07 11:07:32;;;;;;;2.95;2.53;;;7.30;40.80;;;;;;5034726;28;20192;-49
2021/12/07 11:10:16;;;;;;;5.95;3.00;;;7.30;40.70;;;;;;5017620;28;20513;-48
2021/12/07 11:12:59;;;;;;;6.57;1.90;;;7.40;40.40;;;;;;5034892;28;20224;-48
2021/12/07 11:15:30;;;;;;;4.30;2.05;;;7.40;40.30;;;;;;5003097;28;20178;-49
2021/12/07 11:18:05;;;;;;;8.32;3.50;;;7.40;40.40;;;;;;5034805;28;20166;-49
2021/12/07 11:20:35;;;;;;;11.05;4.72;;;7.40;40.40;;;;;;5034563;28;20169;-49
2021/12/07 11:23:11;;;;;;;6.07;3.25;;;7.40;40.10;;;;;;5017664;28;20162;-48
2021/12/07 11:29:39;;;;;;;5.80;5.20;;;7.40;40.20;;;;;;5034703;28;20169;-48
2021/12/07 11:31:38;;;;;;;3.67;2.53;;;7.40;40.50;;;;;;5019986;28;20248;-48
2021/12/07 11:34:12;;;;;;;8.95;4.90;;;7.30;40.50;;;;;;5034688;28;20159;-48
2021/12/07 11:36:47;;;;;;;6.43;2.13;;;7.40;40.50;;;;;;5017645;28;20212;-48
2021/12/07 11:39:32;;;;;;;4.53;4.22;;;7.40;40.70;;;;;;5034348;28;20595;-48
2021/12/07 11:42:01;;;;;;;11.30;5.03;;;7.40;40.50;;;;;;5031402;28;20224;-48
2021/12/07 11:44:30;;;;;;;9.68;5.75;;;7.30;40.80;;;;;;5053466;28;20161;-49
2021/12/07 11:46:59;;;;;;;4.80;3.40;;;7.30;40.90;;;;;;5037217;28;20165;-48
2021/12/07 11:49:29;;;;;;;5.05;2.85;;;7.30;40.80;;;;;;5053296;28;20181;-48
2021/12/07 11:52:00;;;;;;;3.88;3.33;;;7.30;40.60;;;;;;5053246;28;20165;-49
2021/12/07 11:54:31;;;;;;;3.85;2.80;;;7.30;40.90;;;;;;5053333;28;20575;-48
2021/12/07 11:57:03;;;;;;;4.80;3.28;;;7.30;41.10;;;;;;5053458;28;20684;-49
2021/12/07 11:59:31;;;;;;;6.97;2.88;;;7.40;41.20;;;;;;5053485;28;20162;-49
2021/12/07 12:01:59;;;;;;;12.65;3.92;;;7.40;41.10;;;;;;5036891;28;20165;-48
2021/12/07 12:04:26;;;;;;;7.10;5.05;;;7.30;40.90;;;;;;5053189;28;20603;-50
2021/12/07 12:06:59;;;;;;;5.40;3.88;;;7.40;41.10;;;;;;5053967;28;20511;-49
2021/12/07 12:09:28;;;;;;;9.15;4.85;;;7.40;41.00;;;;;;5053521;28;20200;-48
2021/12/07 12:12:00;;;;;;;9.68;2.92;;;7.40;41.20;;;;;;5053150;28;20201;-49
2021/12/07 12:15:04;;;;;;;3.25;2.88;;;7.40;41.90;;;;;;5053394;28;20165;-49
2021/12/07 12:17:45;;;;;;;9.00;3.85;;;7.40;41.10;;;;;;5055458;28;20165;-50
2021/12/07 12:20:33;;;;;;;7.90;3.97;;;7.40;40.90;;;;;;5057143;28;20173;-48
2021/12/07 12:23:15;;;;;;;8.68;7.80;;;7.40;41.20;;;;;;5056588;28;20182;-49
2021/12/07 12:25:43;;;;;;;4.93;3.75;;;7.40;41.30;;;;;;5057640;28;20157;-48
2021/12/07 12:28:10;;;;;;;3.97;1.73;;;7.50;41.40;;;;;;5057591;28;20171;-49
2021/12/07 12:30:42;;;;;;;6.03;3.30;;;7.50;41.50;;;;;;5057304;28;20193;-48
2021/12/07 12:33:13;;;;;;;10.88;3.97;;;7.50;41.40;;;;;;5056573;28;20193;-48
2021/12/07 12:35:49;;;;;;;3.80;2.70;;;7.50;41.00;;;;;;5057437;28;20215;-49
2021/12/07 12:38:31;;;;;;;2.85;1.92;;;7.50;41.00;;;;;;5057484;28;20161;-48
2021/12/07 12:41:09;;;;;;;5.15;3.53;;;7.50;40.90;;;;;;5039965;28;20204;-48
2021/12/07 12:43:55;;;;;;;9.02;5.32;;;7.50;41.10;;;;;;5037536;28;20252;-49
2021/12/07 12:46:28;;;;;;;8.98;1.98;;;7.50;41.20;;;;;;5037046;28;20238;-49
2021/12/07 12:48:59;;;;;;;7.90;3.95;;;7.50;41.10;;;;;;5036850;28;20499;-50
2021/12/07 12:51:31;;;;;;;6.10;5.53;;;7.50;41.10;;;;;;5037084;28;20245;-49
2021/12/07 12:53:59;;;;;;;9.63;4.78;;;7.40;40.90;;;;;;5037082;28;20158;-50
2021/12/07 12:56:36;;;;;;;3.83;2.97;;;7.30;41.30;;;;;;5019753;28;20575;-49
2021/12/07 12:59:11;;;;;;;9.18;4.07;;;7.30;41.30;;;;;;4989093;28;20177;-48
2021/12/07 13:01:43;;;;;;;4.38;2.25;;;7.40;41.40;;;;;;5037045;28;20602;-48
2021/12/07 13:04:23;;;;;;;5.82;3.65;;;7.40;41.30;;;;;;5036704;28;20591;-50
2021/12/07 13:07:01;;;;;;;9.30;5.50;;;7.40;41.20;;;;;;5036719;28;20158;-48
2021/12/07 13:09:35;;;;;;;15.95;6.13;;;7.40;40.60;;;;;;5036528;28;20205;-49
2021/12/07 13:12:25;;;;;;;5.95;3.97;;;7.40;40.80;;;;;;5019578;28;20185;-49
2021/12/07 13:15:08;;;;;;;5.30;2.92;;;7.40;41.00;;;;;;5036767;28;20166;-48
2021/12/07 13:17:43;;;;;;;6.80;4.15;;;7.40;41.10;;;;;;5021244;28;20170;-49
2021/12/07 13:20:19;;;;;;;8.70;2.78;;;7.30;41.10;;;;;;5003536;28;20614;-48
2021/12/07 13:22:56;;;;;;;9.10;3.88;;;7.20;41.20;;;;;;5036688;28;20637;-48
2021/12/07 13:25:34;;;;;;;7.82;4.53;;;7.20;41.30;;;;;;5036461;28;20154;-49
2021/12/07 13:28:11;;;;;;;8.63;4.20;;;7.20;41.60;;;;;;5035907;28;20196;-49
2021/12/07 13:30:44;;;;;;;5.22;3.97;;;7.20;41.50;;;;;;5036375;28;20284;-48
2021/12/07 13:33:24;;;;;;;8.27;4.18;;;7.20;41.30;;;;;;5036470;28;20169;-48
2021/12/07 13:35:53;;;;;;;8.18;5.70;;;7.30;41.70;;;;;;5036108;28;20237;-48
2021/12/07 13:38:25;;;;;;;7.25;3.55;;;7.20;41.10;;;;;;5003296;28;20159;-49
2021/12/07 13:41:12;;;;;;;5.88;3.03;;;7.30;41.50;;;;;;5019215;28;20177;-49
2021/12/07 13:43:41;;;;;;;6.65;4.85;;;7.30;41.50;;;;;;5055647;28;20240;-48
2021/12/07 13:46:24;;;;;;;7.15;3.33;;;7.30;42.40;;;;;;5055774;28;20169;-49
2021/12/07 13:49:04;;;;;;;6.80;3.15;;;7.40;41.60;;;;;;5055683;28;20150;-49
2021/12/07 13:51:32;;;;;;;5.03;3.75;;;7.40;41.70;;;;;;5023830;28;20181;-49
2021/12/07 13:54:01;;;;;;;11.45;5.70;;;7.40;41.30;;;;;;5055965;28;20161;-49
2021/12/07 13:56:36;;;;;;;12.75;5.00;;;7.40;41.40;;;;;;5055677;28;20168;-49
2021/12/07 13:59:08;;;;;;;7.88;4.28;;;7.40;41.30;;;;;;5055796;28;20299;-49
2021/12/07 14:01:38;;;;;;;6.70;4.43;;;7.40;41.40;;;;;;5022468;28;20573;-49
2021/12/07 14:04:08;;;;;;;3.72;2.90;;;7.50;41.40;;;;;;5055469;28;20245;-49
2021/12/07 14:06:36;;;;;;;4.75;2.90;;;7.40;41.30;;;;;;5055343;28;20166;-48
2021/12/07 14:09:11;;;;;;;8.13;4.45;;;7.50;41.40;;;;;;5055553;28;20184;-49
2021/12/07 14:11:39;;;;;;;5.88;3.70;;;7.50;41.50;;;;;;5055345;28;20161;-48
2021/12/07 14:14:11;;;;;;;7.93;3.28;;;7.50;41.50;;;;;;5055545;28;20162;-49
2021/12/07 14:16:39;;;;;;;6.38;3.65;;;7.40;41.40;;;;;;5038206;28;20594;-49
2021/12/07 14:19:07;;;;;;;4.95;4.45;;;7.40;41.30;;;;;;5037906;28;20200;-49
2021/12/07 14:21:36;;;;;;;4.47;3.15;;;7.40;41.50;;;;;;5055609;28;20188;-48
2021/12/07 14:24:16;;;;;;;6.55;4.32;;;7.40;41.50;;;;;;5038135;28;20590;-49
2021/12/07 14:26:45;;;;;;;8.65;4.65;;;7.40;41.50;;;;;;5007597;28;20205;-48
2021/12/07 14:29:22;;;;;;;9.15;4.97;;;7.30;41.70;;;;;;5037714;28;20267;-48
2021/12/07 14:31:57;;;;;;;5.72;4.65;;;7.30;41.80;;;;;;5055026;28;20157;-48
2021/12/07 14:34:30;;;;;;;6.00;2.67;;;7.30;41.90;;;;;;5037744;28;20179;-49
2021/12/07 14:37:01;;;;;;;7.70;4.63;;;7.30;41.80;;;;;;5021307;28;20165;-48
2021/12/07 14:39:34;;;;;;;6.43;4.28;;;7.30;41.90;;;;;;5020808;28;20234;-48
2021/12/07 14:42:06;;;;;;;3.85;3.17;;;7.30;41.70;;;;;;5042798;28;20287;-48
2021/12/07 14:44:39;;;;;;;4.97;4.55;;;7.30;41.60;;;;;;5055276;28;20173;-48
2021/12/07 14:47:08;;;;;;;7.53;3.08;;;7.40;41.60;;;;;;5054839;28;20172;-48
2021/12/07 14:49:39;;;;;;;6.60;4.07;;;7.40;41.70;;;;;;5054613;28;20197;-49